White, Pennsylvania
Current Conditions -  °F | °C
As of 2:45 PM on Monday 22 Dec 2014 (Local Time) from KLBE Reporting Station
Broken Clouds Broken Clouds  
Wind Chill: 35°   Ceiling: 8000
Heat Index: 41°   Visibility: 10mi
Dew Point: 28°   Wind: 10mph
Humidity: 61%   Direction: 110°ESE
Pressure: 30.04"   Gusts: NA
Location:  40.07°N, 79.44°W
Report Text: KLBE 221945Z 11009KT 080V140 10SM BKN080 05/M02 A3004
Loading
Personal Weather Stations






























Interactive Weather Map New forecast layout! Learn more

10-Day Weather Forecast

Advertisements
Track Severe Weather on mobile